createdAt,value
2023-04-09T00:01:11.920Z,64.00
2023-04-09T00:03:40.662Z,58.00
2023-04-09T00:06:08.808Z,57.10
2023-04-09T00:08:36.651Z,57.30
2023-04-09T00:11:05.728Z,56.80
2023-04-09T00:13:39.191Z,62.70
2023-04-09T00:16:09.491Z,56.30
2023-04-09T00:18:37.506Z,60.60
2023-04-09T00:21:05.750Z,59.70
2023-04-09T00:23:34.480Z,58.90
2023-04-09T00:26:02.329Z,62.70
2023-04-09T00:28:30.647Z,64.00
2023-04-09T00:30:58.682Z,72.20
2023-04-09T00:33:26.642Z,72.20
2023-04-09T00:35:54.590Z,75.30
2023-04-09T00:38:22.644Z,74.50
2023-04-09T00:40:51.356Z,68.20
2023-04-09T00:43:19.330Z,75.20
2023-04-09T00:45:47.631Z,73.60
2023-04-09T00:48:16.417Z,71.70
2023-04-09T00:50:44.568Z,78.40
2023-04-09T00:53:14.359Z,67.30
2023-04-09T00:55:42.378Z,70.90
2023-04-09T00:58:10.282Z,73.60
2023-04-09T01:00:38.273Z,68.30
2023-04-09T01:03:07.633Z,61.00
2023-04-09T01:06:02.231Z,67.00
2023-04-09T01:08:33.100Z,72.30
2023-04-09T01:11:14.123Z,72.00
2023-04-09T01:14:00.592Z,66.80
2023-04-09T01:16:32.818Z,69.60
2023-04-09T01:19:22.986Z,64.30
2023-04-09T01:21:52.709Z,67.40
2023-04-09T01:24:59.901Z,73.40
2023-04-09T01:27:47.159Z,67.00
2023-04-09T01:30:17.292Z,75.70
2023-04-09T01:32:45.948Z,63.30
2023-04-09T01:35:14.409Z,64.40
2023-04-09T01:37:42.984Z,65.80
2023-04-09T01:40:11.366Z,72.50
2023-04-09T01:42:41.164Z,78.20
2023-04-09T01:45:11.844Z,69.80
2023-04-09T01:47:40.755Z,74.00
2023-04-09T01:50:09.222Z,71.60
2023-04-09T01:52:37.378Z,69.60
2023-04-09T01:55:05.741Z,80.10
2023-04-09T01:57:33.654Z,77.80
2023-04-09T02:00:01.609Z,79.40
2023-04-09T02:02:42.966Z,71.60
2023-04-09T02:05:15.466Z,74.70
2023-04-09T02:07:47.500Z,79.50
2023-04-09T02:10:17.414Z,82.20
2023-04-09T02:12:50.029Z,85.30
2023-04-09T02:15:20.420Z,80.70
2023-04-09T02:17:48.454Z,80.20
2023-04-09T02:20:20.056Z,77.30
2023-04-09T02:22:48.470Z,83.60
2023-04-09T02:25:16.475Z,80.00
2023-04-09T02:27:44.335Z,72.30
2023-04-09T02:30:12.349Z,75.70
2023-04-09T02:32:40.413Z,66.40
2023-04-09T02:35:08.413Z,61.30
2023-04-09T02:37:36.412Z,66.90
2023-04-09T02:40:04.600Z,73.20
2023-04-09T02:42:32.606Z,70.70
2023-04-09T02:45:00.502Z,64.70
2023-04-09T02:47:30.579Z,68.20
2023-04-09T02:49:58.589Z,65.60
2023-04-09T02:52:26.392Z,64.40
2023-04-09T02:54:54.417Z,65.40
2023-04-09T02:57:22.416Z,64.90
2023-04-09T02:59:50.347Z,66.20
2023-04-09T03:02:18.289Z,58.30
2023-04-09T03:04:46.334Z,60.10
2023-04-09T03:07:14.216Z,62.20
2023-04-09T03:09:42.116Z,60.20
2023-04-09T03:12:10.140Z,68.30
2023-04-09T03:14:37.968Z,72.20
2023-04-09T03:17:05.978Z,68.20
2023-04-09T03:19:34.021Z,62.20
2023-04-09T03:22:02.473Z,59.00
2023-04-09T03:24:32.264Z,62.90
2023-04-09T03:27:00.389Z,66.20
2023-04-09T03:29:28.237Z,69.50
2023-04-09T03:31:56.143Z,68.20
2023-04-09T03:34:24.695Z,60.30
2023-04-09T03:36:52.846Z,62.40
2023-04-09T03:39:20.747Z,65.30
2023-04-09T03:41:48.909Z,59.20
2023-04-09T03:44:17.046Z,56.60
2023-04-09T03:46:45.591Z,56.40
2023-04-09T03:49:13.557Z,60.20
2023-04-09T03:51:41.619Z,58.60
2023-04-09T03:54:09.516Z,56.60
2023-04-09T03:56:37.393Z,55.10
2023-04-09T03:59:05.496Z,63.20
2023-04-09T04:01:33.506Z,62.50
2023-04-09T04:04:01.822Z,49.30
2023-04-09T04:06:30.066Z,49.20
2023-04-09T04:08:57.988Z,55.90
2023-04-09T04:11:25.967Z,52.50
2023-04-09T04:13:55.856Z,52.80
2023-04-09T04:16:24.321Z,55.10
2023-04-09T04:18:52.408Z,57.50
2023-04-09T04:21:20.426Z,56.40
2023-04-09T04:23:48.314Z,57.90
2023-04-09T04:26:16.237Z,55.70
2023-04-09T04:28:44.374Z,48.60
2023-04-09T04:31:13.176Z,52.90
2023-04-09T04:33:42.464Z,57.70
2023-04-09T04:36:14.516Z,53.50
2023-04-09T04:38:42.694Z,53.10
2023-04-09T04:41:11.540Z,51.60
2023-04-09T04:43:41.485Z,57.90
2023-04-09T04:46:09.465Z,57.70
2023-04-09T04:48:37.812Z,58.40
2023-04-09T04:51:05.828Z,61.50
2023-04-09T04:53:33.711Z,51.40
2023-04-09T04:56:01.699Z,49.80
2023-04-09T04:58:30.636Z,51.80
2023-04-09T05:00:58.746Z,64.10
2023-04-09T05:03:27.705Z,53.00
2023-04-09T05:05:56.212Z,54.20
2023-04-09T05:08:24.151Z,50.60
2023-04-09T05:10:52.112Z,51.30
2023-04-09T05:13:19.968Z,55.80
2023-04-09T05:15:47.961Z,51.80
2023-04-09T05:18:15.968Z,47.80
2023-04-09T05:20:43.865Z,56.70
2023-04-09T05:23:12.766Z,54.50
2023-04-09T05:25:41.028Z,56.60
2023-04-09T05:28:11.251Z,55.80
2023-04-09T05:30:39.348Z,58.80
2023-04-09T05:33:07.367Z,58.00
2023-04-09T05:35:39.338Z,55.80
2023-04-09T05:38:07.289Z,60.70
2023-04-09T05:40:35.551Z,58.10
2023-04-09T05:43:03.498Z,62.80
2023-04-09T05:45:31.492Z,61.50
2023-04-09T05:47:59.418Z,63.10
2023-04-09T05:50:27.530Z,54.90
2023-04-09T05:52:55.990Z,58.50
2023-04-09T05:55:23.845Z,51.10
2023-04-09T05:57:54.671Z,55.80
2023-04-09T06:00:22.548Z,49.10
2023-04-09T06:02:50.950Z,52.90
2023-04-09T06:05:18.869Z,50.20
2023-04-09T06:07:46.826Z,50.70
2023-04-09T06:10:14.680Z,55.00
2023-04-09T06:12:42.521Z,55.80
2023-04-09T06:15:11.022Z,51.50
2023-04-09T06:17:39.112Z,52.60
2023-04-09T06:20:07.782Z,55.10
2023-04-09T06:22:35.818Z,54.80
2023-04-09T06:25:04.285Z,55.70
2023-04-09T06:27:32.279Z,58.70
2023-04-09T06:30:00.376Z,57.30
2023-04-09T06:32:28.313Z,56.30
2023-04-09T06:34:56.320Z,54.50
2023-04-09T06:37:24.651Z,55.80
2023-04-09T06:40:00.497Z,59.50
2023-04-09T06:42:29.076Z,58.80
2023-04-09T06:44:57.204Z,62.80
2023-04-09T06:47:25.613Z,61.00
2023-04-09T06:49:53.575Z,56.60
2023-04-09T06:52:21.518Z,66.20
2023-04-09T06:54:49.393Z,58.30
2023-04-09T06:57:17.361Z,67.20
2023-04-09T06:59:45.761Z,62.70
2023-04-09T07:02:13.981Z,63.90
2023-04-09T07:04:42.215Z,60.70
2023-04-09T07:07:10.668Z,62.30
2023-04-09T07:09:38.639Z,67.00
2023-04-09T07:12:06.557Z,64.50
2023-04-09T07:14:34.452Z,63.10
2023-04-09T07:17:02.493Z,61.60
2023-04-09T07:19:30.994Z,64.60
2023-04-09T07:21:58.848Z,68.50
2023-04-09T07:24:26.925Z,64.70
2023-04-09T07:26:54.731Z,63.40
2023-04-09T07:29:22.662Z,62.70
2023-04-09T07:31:51.052Z,66.10
2023-04-09T07:34:19.033Z,67.60
2023-04-09T07:36:46.862Z,68.50
2023-04-09T07:39:14.673Z,64.40
2023-04-09T07:41:42.664Z,59.10
2023-04-09T07:44:10.501Z,66.10
2023-04-09T07:46:40.016Z,63.50
2023-04-09T07:49:07.961Z,70.50
2023-04-09T07:51:35.918Z,61.30
2023-04-09T07:54:03.798Z,57.90
2023-04-09T07:56:31.694Z,72.70
2023-04-09T07:58:59.544Z,62.50
2023-04-09T08:01:27.667Z,61.10
2023-04-09T08:03:55.724Z,61.80
2023-04-09T08:06:23.765Z,57.60
2023-04-09T08:08:51.926Z,61.70
2023-04-09T08:11:25.262Z,62.70
2023-04-09T08:13:53.265Z,68.30
2023-04-09T08:16:21.464Z,60.10
2023-04-09T08:18:51.375Z,54.30
2023-04-09T08:21:20.101Z,59.40
2023-04-09T08:23:48.195Z,58.00
2023-04-09T08:26:16.066Z,56.90
2023-04-09T08:28:44.005Z,56.90
2023-04-09T08:31:11.866Z,59.10
2023-04-09T08:33:39.697Z,60.80
2023-04-09T08:36:11.949Z,57.10
2023-04-09T08:38:40.766Z,56.80
2023-04-09T08:41:17.176Z,69.90
2023-04-09T08:46:21.917Z,68.00
2023-04-09T08:48:51.937Z,64.40
2023-04-09T08:51:22.733Z,61.60
2023-04-09T08:53:58.340Z,67.80
2023-04-09T08:56:26.733Z,63.70
2023-04-09T08:58:56.307Z,59.50
2023-04-09T09:01:31.902Z,60.40
2023-04-09T09:04:08.340Z,64.40
2023-04-09T09:06:38.713Z,61.70
2023-04-09T09:09:07.754Z,56.00
2023-04-09T09:11:38.017Z,61.70
2023-04-09T09:14:08.661Z,57.40
2023-04-09T09:16:45.349Z,53.10
2023-04-09T09:19:25.632Z,53.40
2023-04-09T09:22:01.846Z,68.00
2023-04-09T09:24:31.053Z,50.90
2023-04-09T09:26:59.237Z,52.30
2023-04-09T09:29:28.224Z,51.90
2023-04-09T09:31:56.641Z,52.00
2023-04-09T09:34:26.251Z,54.30
2023-04-09T09:36:54.552Z,49.30
2023-04-09T09:39:22.750Z,49.70
2023-04-09T09:42:09.660Z,45.60
2023-04-09T09:44:37.523Z,45.40
2023-04-09T09:47:06.392Z,44.40
2023-04-09T09:49:37.990Z,41.70
2023-04-09T09:52:11.567Z,36.70
2023-04-09T09:54:43.973Z,38.60
2023-04-09T09:57:14.644Z,42.40
2023-04-09T09:59:50.981Z,42.70
2023-04-09T10:02:20.682Z,41.10
2023-04-09T10:04:52.825Z,42.60
2023-04-09T10:07:22.441Z,38.00
2023-04-09T10:09:52.031Z,50.50
2023-04-09T10:12:25.786Z,40.60
2023-04-09T10:14:56.305Z,38.50
2023-04-09T10:17:24.194Z,40.20
2023-04-09T10:20:22.160Z,38.50
2023-04-09T10:22:51.838Z,40.10
2023-04-09T10:25:20.712Z,39.10
2023-04-09T10:28:16.601Z,38.80
2023-04-09T10:30:44.815Z,38.50
2023-04-09T10:33:17.166Z,36.40
2023-04-09T10:35:47.249Z,32.80
2023-04-09T10:38:15.553Z,35.10
2023-04-09T10:40:51.035Z,32.80
2023-04-09T10:43:21.124Z,30.30
2023-04-09T10:45:53.581Z,32.00
2023-04-09T10:48:26.711Z,32.10
2023-04-09T10:50:55.474Z,32.70
2023-04-09T10:53:24.870Z,35.60
2023-04-09T10:55:54.358Z,35.10
2023-04-09T10:58:22.225Z,33.90
2023-04-09T11:00:51.488Z,34.90
2023-04-09T11:03:25.312Z,31.80
2023-04-09T11:06:11.845Z,33.30
2023-04-09T11:08:41.667Z,33.50
2023-04-09T11:11:09.683Z,30.50
2023-04-09T11:13:37.592Z,29.70
2023-04-09T11:16:07.338Z,31.50
2023-04-09T11:18:37.132Z,28.50
2023-04-09T11:21:05.286Z,29.90
2023-04-09T11:23:33.980Z,31.00
2023-04-09T11:26:02.525Z,28.00
2023-04-09T11:28:30.473Z,30.60
2023-04-09T11:30:58.324Z,29.60
2023-04-09T11:33:33.254Z,27.60
2023-04-09T11:36:01.824Z,31.20
2023-04-09T11:38:31.832Z,28.00
2023-04-09T11:40:59.759Z,28.30
2023-04-09T11:43:27.814Z,29.20
2023-04-09T11:45:57.512Z,28.10
2023-04-09T11:48:26.067Z,28.00
2023-04-09T11:50:54.314Z,26.30
2023-04-09T11:53:23.756Z,25.70
2023-04-09T11:55:53.321Z,25.60
2023-04-09T11:58:26.376Z,27.30
2023-04-09T12:00:56.420Z,26.10
2023-04-09T12:03:33.170Z,24.30
2023-04-09T12:06:03.042Z,24.60
2023-04-09T12:08:31.845Z,24.40
2023-04-09T12:11:09.375Z,25.20
2023-04-09T12:13:37.360Z,23.70
2023-04-09T12:16:05.736Z,23.30
2023-04-09T12:18:36.793Z,22.00
2023-04-09T12:21:05.801Z,22.80
2023-04-09T12:23:33.657Z,23.50
2023-04-09T12:26:02.364Z,23.30
2023-04-09T12:28:30.901Z,23.50
2023-04-09T12:30:59.657Z,21.20
2023-04-09T12:33:27.608Z,20.50
2023-04-09T12:35:58.383Z,22.40
2023-04-09T12:38:26.911Z,22.00
2023-04-09T12:40:54.932Z,19.60
2023-04-09T12:43:22.900Z,20.40
2023-04-09T12:45:52.871Z,22.20
2023-04-09T12:48:20.981Z,22.20
2023-04-09T12:50:48.882Z,20.20
2023-04-09T12:53:16.825Z,21.20
2023-04-09T12:55:44.729Z,21.80
2023-04-09T12:58:12.672Z,20.00
2023-04-09T13:00:40.809Z,20.20
2023-04-09T13:03:09.270Z,21.90
2023-04-09T13:05:37.344Z,21.20
2023-04-09T13:08:05.288Z,21.90
2023-04-09T13:10:33.380Z,20.60
2023-04-09T13:13:01.534Z,20.70
2023-04-09T13:15:29.580Z,19.60
2023-04-09T13:17:57.637Z,25.20
2023-04-09T13:20:25.632Z,20.40
2023-04-09T13:22:53.500Z,20.70
2023-04-09T13:25:21.504Z,21.70
2023-04-09T13:27:49.445Z,19.70
2023-04-09T13:30:17.424Z,21.40
2023-04-09T13:32:45.893Z,20.70
2023-04-09T13:35:14.096Z,19.90
2023-04-09T13:37:42.254Z,18.90
2023-04-09T13:40:10.681Z,18.70
2023-04-09T13:42:38.604Z,19.50
2023-04-09T13:45:07.143Z,18.70
2023-04-09T13:47:35.159Z,19.90
2023-04-09T13:50:03.200Z,20.50
2023-04-09T13:52:32.855Z,20.10
2023-04-09T13:55:00.824Z,19.90
2023-04-09T13:57:28.680Z,16.70
2023-04-09T13:59:56.596Z,18.20
2023-04-09T14:02:24.929Z,16.80
2023-04-09T14:04:53.107Z,19.30
2023-04-09T14:07:21.132Z,16.20
2023-04-09T14:09:50.797Z,16.50
2023-04-09T14:12:18.786Z,15.80
2023-04-09T14:14:46.645Z,18.60
2023-04-09T14:17:14.620Z,15.70
2023-04-09T14:19:42.559Z,16.00
2023-04-09T14:22:11.607Z,16.10
2023-04-09T14:24:42.200Z,19.60
2023-04-09T14:27:10.323Z,14.30
2023-04-09T14:29:38.193Z,18.80
2023-04-09T14:32:06.281Z,15.70
2023-04-09T14:34:34.295Z,16.70
2023-04-09T14:37:02.903Z,15.30
2023-04-09T14:39:30.835Z,15.60
2023-04-09T14:41:58.627Z,16.30
2023-04-09T14:44:27.301Z,15.90
2023-04-09T14:46:56.912Z,17.30
2023-04-09T14:49:25.257Z,15.30
2023-04-09T14:51:53.141Z,16.30
2023-04-09T14:54:21.349Z,18.20
2023-04-09T14:56:49.245Z,18.30
2023-04-09T14:59:17.106Z,16.90
2023-04-09T15:01:45.265Z,16.30
2023-04-09T15:04:13.353Z,17.80
2023-04-09T15:06:41.333Z,16.90
2023-04-09T15:09:09.312Z,18.50
2023-04-09T15:11:37.166Z,16.60
2023-04-09T15:14:04.948Z,17.30
2023-04-09T15:16:37.428Z,17.40
2023-04-09T15:19:05.616Z,25.40
2023-04-09T15:21:33.492Z,17.00
2023-04-09T15:24:01.550Z,16.00
2023-04-09T15:26:29.458Z,15.50
2023-04-09T15:29:07.917Z,18.20
2023-04-09T15:31:36.399Z,16.60
2023-04-09T15:34:05.220Z,18.60
2023-04-09T15:36:33.116Z,19.20
2023-04-09T15:39:05.077Z,17.40
2023-04-09T15:41:33.962Z,17.30
2023-04-09T15:44:01.806Z,16.40
2023-04-09T15:46:29.756Z,21.60
2023-04-09T15:48:57.627Z,17.40
2023-04-09T15:51:27.070Z,19.60
2023-04-09T15:53:55.452Z,17.20
2023-04-09T15:56:23.786Z,17.30
2023-04-09T15:58:51.802Z,16.80
2023-04-09T16:01:20.133Z,16.60
2023-04-09T16:03:52.130Z,19.10
2023-04-09T16:06:20.235Z,18.40
2023-04-09T16:08:48.225Z,17.50
2023-04-09T16:11:17.474Z,15.70
2023-04-09T16:13:46.286Z,22.70
2023-04-09T16:16:14.278Z,20.50
2023-04-09T16:18:42.280Z,20.40
2023-04-09T16:21:10.127Z,23.40
2023-04-09T16:23:38.652Z,19.20
2023-04-09T16:26:07.120Z,18.70
2023-04-09T16:28:35.118Z,19.40
2023-04-09T16:31:03.212Z,19.20
2023-04-09T16:33:31.254Z,18.10
2023-04-09T16:35:59.580Z,17.00
2023-04-09T16:38:29.257Z,17.50
2023-04-09T16:40:57.230Z,17.70
2023-04-09T16:43:25.883Z,17.90
2023-04-09T16:45:53.881Z,17.90
2023-04-09T16:48:21.898Z,18.90
2023-04-09T16:50:49.786Z,18.50
2023-04-09T16:53:17.834Z,18.60
2023-04-09T16:55:45.843Z,18.90
2023-04-09T16:58:13.701Z,21.10
2023-04-09T17:00:42.068Z,18.30
2023-04-09T17:03:10.330Z,18.70
2023-04-09T17:05:38.468Z,21.30
2023-04-09T17:08:06.873Z,18.70
2023-04-09T17:10:36.888Z,22.10
2023-04-09T17:13:04.833Z,21.00
2023-04-09T17:15:32.636Z,21.20
2023-04-09T17:18:01.609Z,25.50
2023-04-09T17:20:30.121Z,22.90
2023-04-09T17:22:57.982Z,24.90
2023-04-09T17:25:26.034Z,24.70
2023-04-09T17:27:54.580Z,22.80
2023-04-09T17:30:22.491Z,24.80
2023-04-09T17:32:51.338Z,22.10
2023-04-09T17:35:19.296Z,29.30
2023-04-09T17:37:47.282Z,24.10
2023-04-09T17:40:17.521Z,23.80
2023-04-09T17:42:46.497Z,26.20
2023-04-09T17:45:15.005Z,26.00
2023-04-09T17:47:42.919Z,26.20
2023-04-09T17:50:11.359Z,26.90
2023-04-09T17:52:40.676Z,26.40
2023-04-09T17:55:12.441Z,27.50
2023-04-09T17:57:41.916Z,28.10
2023-04-09T18:00:11.140Z,31.10
2023-04-09T18:02:39.593Z,28.10
2023-04-09T18:05:08.472Z,32.50
2023-04-09T18:07:36.803Z,29.60
2023-04-09T18:10:05.587Z,32.80
2023-04-09T18:12:33.547Z,32.50
2023-04-09T18:15:01.598Z,34.80
2023-04-09T18:17:29.672Z,30.70
2023-04-09T18:19:58.465Z,29.70
2023-04-09T18:22:27.670Z,31.30
2023-04-09T18:24:55.875Z,30.80
2023-04-09T18:27:23.770Z,31.90
2023-04-09T18:29:51.777Z,32.40
2023-04-09T18:32:19.945Z,31.00
2023-04-09T18:34:49.681Z,33.70
2023-04-09T18:37:18.385Z,33.70
2023-04-09T18:39:46.859Z,31.10
2023-04-09T18:42:14.738Z,31.90
2023-04-09T18:44:42.828Z,34.30
2023-04-09T18:47:11.230Z,40.20
2023-04-09T18:49:39.170Z,35.40
2023-04-09T18:52:13.198Z,37.50
2023-04-09T18:54:41.078Z,38.10
2023-04-09T18:57:09.025Z,45.00
2023-04-09T18:59:37.394Z,37.40
2023-04-09T19:02:06.019Z,39.90
2023-04-09T19:04:36.587Z,40.20
2023-04-09T19:07:05.314Z,41.30
2023-04-09T19:09:33.722Z,40.30
2023-04-09T19:12:02.288Z,48.20
2023-04-09T19:14:30.487Z,45.20
2023-04-09T19:16:59.653Z,40.50
2023-04-09T19:19:29.170Z,39.60
2023-04-09T19:21:58.518Z,36.80
2023-04-09T19:24:26.489Z,35.80
2023-04-09T19:26:55.103Z,36.70
2023-04-09T19:29:22.995Z,37.10
2023-04-09T19:31:51.204Z,37.00
2023-04-09T19:34:19.126Z,33.30
2023-04-09T19:36:46.884Z,33.30
2023-04-09T19:39:15.503Z,32.70
2023-04-09T19:41:46.078Z,31.70
2023-04-09T19:44:14.048Z,33.90
2023-04-09T19:46:41.894Z,37.80
2023-04-09T19:49:09.773Z,40.00
2023-04-09T19:51:38.887Z,36.80
2023-04-09T19:54:06.994Z,37.40
2023-04-09T19:56:35.071Z,40.90
2023-04-09T19:59:03.011Z,36.70
2023-04-09T20:01:31.047Z,38.90
2023-04-09T20:03:59.884Z,40.60
2023-04-09T20:06:28.970Z,41.00
2023-04-09T20:08:56.948Z,40.00
2023-04-09T20:11:24.900Z,41.20
2023-04-09T20:13:52.867Z,47.90
2023-04-09T20:16:20.782Z,48.70
2023-04-09T20:18:48.761Z,52.30
2023-04-09T20:21:16.697Z,44.80
2023-04-09T20:23:45.587Z,44.30
2023-04-09T20:26:13.848Z,43.50
2023-04-09T20:28:42.095Z,37.30
2023-04-09T20:31:10.047Z,37.50
2023-04-09T20:33:37.979Z,39.00
2023-04-09T20:36:17.285Z,38.40
2023-04-09T20:38:45.501Z,39.80
2023-04-09T20:41:13.645Z,40.20
2023-04-09T20:43:41.560Z,37.00
2023-04-09T20:46:09.731Z,36.30
2023-04-09T20:48:38.101Z,35.80
2023-04-09T20:51:10.780Z,35.30
2023-04-09T20:53:39.153Z,36.90
2023-04-09T20:56:08.581Z,38.10
2023-04-09T20:58:36.831Z,37.20
2023-04-09T21:01:07.407Z,40.40
2023-04-09T21:03:36.742Z,37.90
2023-04-09T21:06:05.421Z,38.50
2023-04-09T21:08:33.226Z,42.80
2023-04-09T21:11:02.252Z,40.70
2023-04-09T21:13:33.719Z,37.00
2023-04-09T21:16:08.595Z,40.70
2023-04-09T21:18:36.563Z,39.00
2023-04-09T21:21:07.992Z,38.70
2023-04-09T21:23:35.929Z,38.30
2023-04-09T21:26:05.010Z,38.00
2023-04-09T21:28:33.130Z,38.90
2023-04-09T21:31:00.993Z,39.30
2023-04-09T21:33:30.194Z,36.10
2023-04-09T21:35:58.424Z,40.30
2023-04-09T21:38:26.403Z,39.40
2023-04-09T21:40:54.287Z,36.60
2023-04-09T21:43:22.201Z,37.30
2023-04-09T21:45:50.732Z,38.50
2023-04-09T21:48:18.581Z,40.70
2023-04-09T21:50:46.500Z,36.60
2023-04-09T21:53:15.656Z,40.10
2023-04-09T21:55:43.552Z,37.30
2023-04-09T21:58:12.142Z,41.00
2023-04-09T22:00:40.123Z,37.40
2023-04-09T22:03:08.259Z,43.50
2023-04-09T22:05:36.590Z,38.60
2023-04-09T22:08:04.455Z,36.30
2023-04-09T22:10:32.385Z,45.10
2023-04-09T22:13:00.281Z,36.80
2023-04-09T22:15:28.345Z,38.90
2023-04-09T22:17:56.312Z,44.70
2023-04-09T22:20:26.226Z,38.00
2023-04-09T22:22:54.755Z,38.50
2023-04-09T22:25:22.733Z,41.70
2023-04-09T22:27:53.310Z,38.70
2023-04-09T22:30:22.004Z,38.10
2023-04-09T22:32:51.526Z,37.10
2023-04-09T22:35:19.564Z,38.30
2023-04-09T22:37:47.548Z,36.70
2023-04-09T22:40:16.025Z,36.90
2023-04-09T22:42:46.681Z,38.70
2023-04-09T22:45:14.679Z,42.30
2023-04-09T22:47:42.542Z,36.80
2023-04-09T22:50:11.211Z,40.50
2023-04-09T22:52:39.082Z,38.20
2023-04-09T22:55:10.128Z,40.10
2023-04-09T22:57:38.450Z,43.10
2023-04-09T23:00:08.506Z,39.60
2023-04-09T23:02:37.055Z,38.40
2023-04-09T23:05:05.840Z,37.20
2023-04-09T23:07:34.083Z,40.00
2023-04-09T23:10:02.071Z,33.60
2023-04-09T23:12:29.861Z,41.60
2023-04-09T23:14:57.767Z,40.10
2023-04-09T23:17:27.890Z,38.30
2023-04-09T23:19:55.804Z,39.10
2023-04-09T23:22:24.392Z,38.60
2023-04-09T23:24:52.218Z,41.80
2023-04-09T23:27:20.327Z,42.70
2023-04-09T23:29:48.317Z,39.80
2023-04-09T23:32:16.325Z,44.50
2023-04-09T23:34:44.140Z,43.10
2023-04-09T23:37:12.110Z,40.30
2023-04-09T23:39:41.262Z,41.60
2023-04-09T23:42:09.206Z,41.40
2023-04-09T23:44:37.164Z,39.10
2023-04-09T23:47:06.588Z,39.00
2023-04-09T23:49:34.454Z,40.20
2023-04-09T23:52:02.283Z,37.90
2023-04-09T23:54:30.798Z,40.50
2023-04-09T23:56:59.705Z,40.80
2023-04-09T23:59:27.831Z,38.80
